sensor_id;sensor_type;location;lat;lon;timestamp;pressure;altitude;pressure_sealevel;temperature;humidity
30110;BME280;14965;50.660;13.226;2023-09-19T00:02:18;94308.16;;;14.71;100.00
30110;BME280;14965;50.660;13.226;2023-09-19T00:04:45;94292.25;;;14.72;100.00
30110;BME280;14965;50.660;13.226;2023-09-19T00:07:11;94289.75;;;14.74;100.00
30110;BME280;14965;50.660;13.226;2023-09-19T00:09:37;94292.84;;;14.76;100.00
30110;BME280;14965;50.660;13.226;2023-09-19T00:12:05;94287.06;;;14.79;100.00
30110;BME280;14965;50.660;13.226;2023-09-19T00:14:31;94281.31;;;14.83;100.00
30110;BME280;14965;50.660;13.226;2023-09-19T00:16:57;94285.16;;;14.85;100.00
30110;BME280;14965;50.660;13.226;2023-09-19T00:19:23;94284.66;;;14.87;100.00
30110;BME280;14965;50.660;13.226;2023-09-19T00:21:50;94284.97;;;14.89;100.00
30110;BME280;14965;50.660;13.226;2023-09-19T00:24:16;94290.53;;;14.89;100.00
30110;BME280;14965;50.660;13.226;2023-09-19T00:26:42;94282.44;;;14.91;100.00
30110;BME280;14965;50.660;13.226;2023-09-19T00:29:08;94296.66;;;14.93;100.00
30110;BME280;14965;50.660;13.226;2023-09-19T00:31:34;94291.38;;;14.95;100.00
30110;BME280;14965;50.660;13.226;2023-09-19T00:34:00;94297.22;;;14.97;100.00
30110;BME280;14965;50.660;13.226;2023-09-19T00:36:26;94294.63;;;14.93;100.00
30110;BME280;14965;50.660;13.226;2023-09-19T00:38:53;94302.69;;;14.91;100.00
30110;BME280;14965;50.660;13.226;2023-09-19T00:41:19;94305.94;;;14.90;100.00
30110;BME280;14965;50.660;13.226;2023-09-19T00:43:45;94297.78;;;14.86;100.00
30110;BME280;14965;50.660;13.226;2023-09-19T00:46:11;94289.19;;;14.84;100.00
30110;BME280;14965;50.660;13.226;2023-09-19T00:48:41;94283.06;;;14.80;100.00
30110;BME280;14965;50.660;13.226;2023-09-19T00:51:08;94285.34;;;14.82;100.00
30110;BME280;14965;50.660;13.226;2023-09-19T00:53:34;94277.50;;;14.80;100.00
30110;BME280;14965;50.660;13.226;2023-09-19T00:56:03;94280.72;;;14.79;100.00
30110;BME280;14965;50.660;13.226;2023-09-19T00:58:29;94285.53;;;14.78;100.00
30110;BME280;14965;50.660;13.226;2023-09-19T01:00:55;94279.13;;;14.72;100.00
30110;BME280;14965;50.660;13.226;2023-09-19T01:03:23;94288.69;;;14.71;100.00
30110;BME280;14965;50.660;13.226;2023-09-19T01:05:49;94276.81;;;14.70;100.00
30110;BME280;14965;50.660;13.226;2023-09-19T01:08:15;94286.13;;;14.67;100.00
30110;BME280;14965;50.660;13.226;2023-09-19T01:10:51;94283.63;;;14.69;100.00
30110;BME280;14965;50.660;13.226;2023-09-19T01:13:29;94276.34;;;14.72;100.00
30110;BME280;14965;50.660;13.226;2023-09-19T01:16:07;94299.34;;;14.73;100.00
30110;BME280;14965;50.660;13.226;2023-09-19T01:18:45;94297.50;;;14.69;100.00
30110;BME280;14965;50.660;13.226;2023-09-19T01:21:21;94301.44;;;14.63;100.00
30110;BME280;14965;50.660;13.226;2023-09-19T01:24:16;94300.84;;;14.59;100.00
30110;BME280;14965;50.660;13.226;2023-09-19T01:27:08;94306.63;;;14.55;100.00
30110;BME280;14965;50.660;13.226;2023-09-19T01:29:47;94298.00;;;14.53;100.00
30110;BME280;14965;50.660;13.226;2023-09-19T01:32:36;94292.63;;;14.50;100.00
30110;BME280;14965;50.660;13.226;2023-09-19T01:35:02;94295.09;;;14.48;100.00
30110;BME280;14965;50.660;13.226;2023-09-19T01:37:29;94302.84;;;14.43;100.00
30110;BME280;14965;50.660;13.226;2023-09-19T01:39:58;94302.34;;;14.45;100.00
30110;BME280;14965;50.660;13.226;2023-09-19T01:42:42;94307.16;;;14.44;100.00
30110;BME280;14965;50.660;13.226;2023-09-19T01:45:12;94311.19;;;14.43;100.00
30110;BME280;14965;50.660;13.226;2023-09-19T01:47:48;94310.59;;;14.39;100.00
30110;BME280;14965;50.660;13.226;2023-09-19T01:50:29;94311.06;;;14.38;100.00
30110;BME280;14965;50.660;13.226;2023-09-19T01:53:02;94303.97;;;14.37;100.00
30110;BME280;14965;50.660;13.226;2023-09-19T01:55:30;94305.50;;;14.38;100.00
30110;BME280;14965;50.660;13.226;2023-09-19T01:58:07;94309.84;;;14.39;100.00
30110;BME280;14965;50.660;13.226;2023-09-19T02:00:37;94309.84;;;14.39;100.00
30110;BME280;14965;50.660;13.226;2023-09-19T02:03:05;94315.41;;;14.39;100.00
30110;BME280;14965;50.660;13.226;2023-09-19T02:05:32;94313.06;;;14.37;100.00
30110;BME280;14965;50.660;13.226;2023-09-19T02:07:58;94311.84;;;14.38;100.00
30110;BME280;14965;50.660;13.226;2023-09-19T02:10:24;94317.41;;;14.38;100.00
30110;BME280;14965;50.660;13.226;2023-09-19T02:12:50;94315.41;;;14.39;100.00
30110;BME280;14965;50.660;13.226;2023-09-19T02:15:16;94325.25;;;14.40;100.00
30110;BME280;14965;50.660;13.226;2023-09-19T02:17:42;94322.00;;;14.41;100.00
30110;BME280;14965;50.660;13.226;2023-09-19T02:20:11;94329.38;;;14.44;100.00
30110;BME280;14965;50.660;13.226;2023-09-19T02:22:37;94330.31;;;14.41;100.00
30110;BME280;14965;50.660;13.226;2023-09-19T02:25:04;94332.06;;;14.39;100.00
30110;BME280;14965;50.660;13.226;2023-09-19T02:27:31;94336.06;;;14.38;100.00
30110;BME280;14965;50.660;13.226;2023-09-19T02:29:56;94331.31;;;14.38;100.00
30110;BME280;14965;50.660;13.226;2023-09-19T02:32:23;94336.38;;;14.40;100.00
30110;BME280;14965;50.660;13.226;2023-09-19T02:34:49;94340.66;;;14.41;100.00
30110;BME280;14965;50.660;13.226;2023-09-19T02:37:17;94348.56;;;14.42;100.00
30110;BME280;14965;50.660;13.226;2023-09-19T02:39:43;94339.41;;;14.42;100.00
30110;BME280;14965;50.660;13.226;2023-09-19T02:42:09;94339.91;;;14.40;100.00
30110;BME280;14965;50.660;13.226;2023-09-19T02:44:35;94349.00;;;14.41;100.00
30110;BME280;14965;50.660;13.226;2023-09-19T02:47:01;94354.28;;;14.39;100.00
30110;BME280;14965;50.660;13.226;2023-09-19T02:49:27;94352.72;;;14.38;100.00
30110;BME280;14965;50.660;13.226;2023-09-19T02:51:53;94356.00;;;14.36;100.00
30110;BME280;14965;50.660;13.226;2023-09-19T02:54:20;94360.19;;;14.32;100.00
30110;BME280;14965;50.660;13.226;2023-09-19T02:56:46;94356.66;;;14.31;100.00
30110;BME280;14965;50.660;13.226;2023-09-19T02:59:12;94364.69;;;14.29;100.00
30110;BME280;14965;50.660;13.226;2023-09-19T03:01:38;94368.72;;;14.28;100.00
30110;BME280;14965;50.660;13.226;2023-09-19T03:04:05;94365.16;;;14.28;100.00
30110;BME280;14965;50.660;13.226;2023-09-19T03:06:31;94370.25;;;14.29;100.00
30110;BME280;14965;50.660;13.226;2023-09-19T03:08:57;94377.81;;;14.29;100.00
30110;BME280;14965;50.660;13.226;2023-09-19T03:11:25;94381.66;;;14.31;100.00
30110;BME280;14965;50.660;13.226;2023-09-19T03:13:52;94375.34;;;14.31;100.00
30110;BME280;14965;50.660;13.226;2023-09-19T03:16:18;94388.16;;;14.28;100.00
30110;BME280;14965;50.660;13.226;2023-09-19T03:18:44;94395.72;;;14.28;100.00
30110;BME280;14965;50.660;13.226;2023-09-19T03:21:11;94396.22;;;14.26;100.00
30110;BME280;14965;50.660;13.226;2023-09-19T03:23:37;94384.34;;;14.26;100.00
30110;BME280;14965;50.660;13.226;2023-09-19T03:26:03;94386.03;;;14.23;100.00
30110;BME280;14965;50.660;13.226;2023-09-19T03:28:33;94384.19;;;14.20;100.00
30110;BME280;14965;50.660;13.226;2023-09-19T03:31:01;94381.44;;;14.20;100.00
30110;BME280;14965;50.660;13.226;2023-09-19T03:33:27;94384.69;;;14.18;100.00
30110;BME280;14965;50.660;13.226;2023-09-19T03:35:54;94395.47;;;14.16;100.00
30110;BME280;14965;50.660;13.226;2023-09-19T03:38:20;94392.72;;;14.16;100.00
30110;BME280;14965;50.660;13.226;2023-09-19T03:40:46;94392.91;;;14.13;100.00
30110;BME280;14965;50.660;13.226;2023-09-19T03:43:12;94394.63;;;14.10;100.00
30110;BME280;14965;50.660;13.226;2023-09-19T03:45:40;94395.88;;;14.09;100.00
30110;BME280;14965;50.660;13.226;2023-09-19T03:48:08;94394.78;;;14.07;100.00
30110;BME280;14965;50.660;13.226;2023-09-19T03:50:34;94394.78;;;14.07;100.00
30110;BME280;14965;50.660;13.226;2023-09-19T03:53:00;94404.81;;;14.04;100.00
30110;BME280;14965;50.660;13.226;2023-09-19T03:55:26;94391.25;;;14.06;100.00
30110;BME280;14965;50.660;13.226;2023-09-19T03:57:52;94396.31;;;14.08;100.00
30110;BME280;14965;50.660;13.226;2023-09-19T04:00:18;94402.63;;;14.08;100.00
30110;BME280;14965;50.660;13.226;2023-09-19T04:02:45;94397.09;;;14.08;100.00
30110;BME280;14965;50.660;13.226;2023-09-19T04:05:11;94398.63;;;14.09;100.00
30110;BME280;14965;50.660;13.226;2023-09-19T04:07:37;94403.88;;;14.07;100.00
30110;BME280;14965;50.660;13.226;2023-09-19T04:10:05;94403.59;;;14.05;100.00
30110;BME280;14965;50.660;13.226;2023-09-19T04:12:31;94408.38;;;14.05;100.00
30110;BME280;14965;50.660;13.226;2023-09-19T04:14:57;94408.84;;;14.03;100.00
30110;BME280;14965;50.660;13.226;2023-09-19T04:17:22;94404.81;;;14.04;100.00
30110;BME280;14965;50.660;13.226;2023-09-19T04:19:50;94405.31;;;14.03;100.00
30110;BME280;14965;50.660;13.226;2023-09-19T04:22:16;94411.16;;;14.05;100.00
30110;BME280;14965;50.660;13.226;2023-09-19T04:24:42;94406.06;;;14.03;100.00
30110;BME280;14965;50.660;13.226;2023-09-19T04:27:08;94405.31;;;14.03;100.00
30110;BME280;14965;50.660;13.226;2023-09-19T04:29:34;94414.13;;;14.01;100.00
30110;BME280;14965;50.660;13.226;2023-09-19T04:31:59;94418.91;;;14.01;100.00
30110;BME280;14965;50.660;13.226;2023-09-19T04:34:25;94424.16;;;13.99;100.00
30110;BME280;14965;50.660;13.226;2023-09-19T04:36:53;94407.19;;;13.97;100.00
30110;BME280;14965;50.660;13.226;2023-09-19T04:39:19;94406.41;;;13.96;100.00
30110;BME280;14965;50.660;13.226;2023-09-19T04:41:44;94416.47;;;13.93;100.00
30110;BME280;14965;50.660;13.226;2023-09-19T04:44:10;94411.69;;;13.94;100.00
30110;BME280;14965;50.660;13.226;2023-09-19T04:46:36;94412.94;;;13.93;100.00
30110;BME280;14965;50.660;13.226;2023-09-19T04:49:02;94406.13;;;13.94;100.00
30110;BME280;14965;50.660;13.226;2023-09-19T04:51:28;94411.41;;;13.92;100.00
30110;BME280;14965;50.660;13.226;2023-09-19T04:53:56;94422.50;;;13.92;100.00
30110;BME280;14965;50.660;13.226;2023-09-19T04:56:21;94424.19;;;13.89;100.00
30110;BME280;14965;50.660;13.226;2023-09-19T04:58:47;94433.78;;;13.88;100.00
30110;BME280;14965;50.660;13.226;2023-09-19T05:01:13;94436.25;;;13.86;100.00
30110;BME280;14965;50.660;13.226;2023-09-19T05:03:39;94447.34;;;13.86;100.00
30110;BME280;14965;50.660;13.226;2023-09-19T05:06:05;94448.59;;;13.85;100.00
30110;BME280;14965;50.660;13.226;2023-09-19T05:08:31;94445.81;;;13.85;100.00
30110;BME280;14965;50.660;13.226;2023-09-19T05:11:01;94447.81;;;13.85;100.00
30110;BME280;14965;50.660;13.226;2023-09-19T05:13:27;94453.97;;;13.89;100.00
30110;BME280;14965;50.660;13.226;2023-09-19T05:15:53;94458.28;;;13.90;100.00
30110;BME280;14965;50.660;13.226;2023-09-19T05:18:19;94462.91;;;13.93;100.00
30110;BME280;14965;50.660;13.226;2023-09-19T05:20:45;94462.91;;;13.93;100.00
30110;BME280;14965;50.660;13.226;2023-09-19T05:23:11;94463.00;;;13.99;100.00
30110;BME280;14965;50.660;13.226;2023-09-19T05:25:39;94456.53;;;14.02;100.00
30110;BME280;14965;50.660;13.226;2023-09-19T05:28:08;94458.97;;;14.09;100.00
30110;BME280;14965;50.660;13.226;2023-09-19T05:30:35;94463.09;;;14.13;100.00
30110;BME280;14965;50.660;13.226;2023-09-19T05:33:02;94463.38;;;14.15;100.00
30110;BME280;14965;50.660;13.226;2023-09-19T05:35:28;94467.41;;;14.14;100.00
30110;BME280;14965;50.660;13.226;2023-09-19T05:37:54;94470.47;;;14.16;100.00
30110;BME280;14965;50.660;13.226;2023-09-19T05:40:20;94465.50;;;14.20;100.00
30110;BME280;14965;50.660;13.226;2023-09-19T05:42:47;94467.06;;;14.22;100.00
30110;BME280;14965;50.660;13.226;2023-09-19T05:45:14;94474.75;;;14.27;100.00
30110;BME280;14965;50.660;13.226;2023-09-19T05:47:40;94470.06;;;14.33;100.00
30110;BME280;14965;50.660;13.226;2023-09-19T05:50:07;94470.19;;;14.38;100.00
30110;BME280;14965;50.660;13.226;2023-09-19T05:52:33;94475.75;;;14.38;100.00
30110;BME280;14965;50.660;13.226;2023-09-19T05:54:59;94473.09;;;14.44;100.00
30110;BME280;14965;50.660;13.226;2023-09-19T05:57:25;94479.53;;;14.50;100.00
30110;BME280;14965;50.660;13.226;2023-09-19T05:59:51;94488.19;;;14.52;100.00
30110;BME280;14965;50.660;13.226;2023-09-19T06:02:18;94481.38;;;14.53;100.00
30110;BME280;14965;50.660;13.226;2023-09-19T06:04:44;94481.22;;;14.57;100.00
30110;BME280;14965;50.660;13.226;2023-09-19T06:07:10;94477.00;;;14.61;100.00
30110;BME280;14965;50.660;13.226;2023-09-19T06:09:36;94473.28;;;14.64;100.00
30110;BME280;14965;50.660;13.226;2023-09-19T06:12:03;94482.22;;;14.68;100.00
30110;BME280;14965;50.660;13.226;2023-09-19T06:14:29;94484.22;;;14.68;100.00
30110;BME280;14965;50.660;13.226;2023-09-19T06:16:55;94489.78;;;14.68;100.00
30110;BME280;14965;50.660;13.226;2023-09-19T06:19:22;94484.22;;;14.68;100.00
30110;BME280;14965;50.660;13.226;2023-09-19T06:21:48;94487.28;;;14.70;100.00
30110;BME280;14965;50.660;13.226;2023-09-19T06:24:14;94486.81;;;14.72;100.00
30110;BME280;14965;50.660;13.226;2023-09-19T06:26:40;94495.44;;;14.74;100.00
30110;BME280;14965;50.660;13.226;2023-09-19T06:29:06;94504.69;;;14.80;100.00
30110;BME280;14965;50.660;13.226;2023-09-19T06:31:32;94500.25;;;14.88;100.00
30110;BME280;14965;50.660;13.226;2023-09-19T06:33:58;94500.09;;;14.91;100.00
30110;BME280;14965;50.660;13.226;2023-09-19T06:36:26;94496.84;;;14.93;100.00
30110;BME280;14965;50.660;13.226;2023-09-19T06:38:52;94497.13;;;14.95;100.00
30110;BME280;14965;50.660;13.226;2023-09-19T06:41:18;94500.22;;;14.97;100.00
30110;BME280;14965;50.660;13.226;2023-09-19T06:43:44;94504.81;;;15.00;100.00
30110;BME280;14965;50.660;13.226;2023-09-19T06:46:10;94498.88;;;15.07;100.00
30110;BME280;14965;50.660;13.226;2023-09-19T06:48:36;94504.16;;;15.20;100.00
30110;BME280;14965;50.660;13.226;2023-09-19T06:51:02;94512.44;;;15.29;99.42
30110;BME280;14965;50.660;13.226;2023-09-19T06:53:29;94514.66;;;15.40;98.65
30110;BME280;14965;50.660;13.226;2023-09-19T06:55:55;94516.09;;;15.50;98.39
30110;BME280;14965;50.660;13.226;2023-09-19T06:58:22;94518.50;;;15.57;97.88
30110;BME280;14965;50.660;13.226;2023-09-19T07:00:47;94520.53;;;15.72;97.24
30110;BME280;14965;50.660;13.226;2023-09-19T07:03:14;94513.44;;;15.85;96.78
30110;BME280;14965;50.660;13.226;2023-09-19T07:05:40;94521.09;;;15.90;94.99
30110;BME280;14965;50.660;13.226;2023-09-19T07:08:08;94528.00;;;15.95;95.03
30110;BME280;14965;50.660;13.226;2023-09-19T07:10:35;94534.84;;;15.94;94.88
30110;BME280;14965;50.660;13.226;2023-09-19T07:13:04;94531.19;;;15.88;94.29
30110;BME280;14965;50.660;13.226;2023-09-19T07:15:32;94537.25;;;15.86;94.37
30110;BME280;14965;50.660;13.226;2023-09-19T07:17:59;94537.44;;;15.83;94.46
30110;BME280;14965;50.660;13.226;2023-09-19T07:20:25;94537.03;;;15.90;95.07
30110;BME280;14965;50.660;13.226;2023-09-19T07:22:50;94541.56;;;16.02;94.85
30110;BME280;14965;50.660;13.226;2023-09-19T07:25:18;94543.63;;;16.22;94.73
30110;BME280;14965;50.660;13.226;2023-09-19T07:27:46;94550.41;;;16.36;91.75
30110;BME280;14965;50.660;13.226;2023-09-19T07:30:13;94562.97;;;16.46;90.51
30110;BME280;14965;50.660;13.226;2023-09-19T07:32:39;94562.97;;;16.46;90.81
30110;BME280;14965;50.660;13.226;2023-09-19T07:35:05;94567.78;;;16.46;90.46
30110;BME280;14965;50.660;13.226;2023-09-19T07:37:32;94561.94;;;16.43;90.02
30110;BME280;14965;50.660;13.226;2023-09-19T07:39:58;94568.88;;;16.33;89.72
30110;BME280;14965;50.660;13.226;2023-09-19T07:42:24;94565.63;;;16.20;88.93
30110;BME280;14965;50.660;13.226;2023-09-19T07:44:51;94578.31;;;16.21;90.29
30110;BME280;14965;50.660;13.226;2023-09-19T07:47:17;94569.06;;;16.30;90.59
30110;BME280;14965;50.660;13.226;2023-09-19T07:49:46;94575.00;;;16.37;90.29
30110;BME280;14965;50.660;13.226;2023-09-19T07:52:12;94563.72;;;16.26;89.28
30110;BME280;14965;50.660;13.226;2023-09-19T07:54:39;94585.78;;;16.30;90.02
30110;BME280;14965;50.660;13.226;2023-09-19T07:57:05;94584.75;;;16.27;89.82
30110;BME280;14965;50.660;13.226;2023-09-19T07:59:31;94584.44;;;16.40;89.84
30110;BME280;14965;50.660;13.226;2023-09-19T08:01:58;94585.31;;;16.66;89.87
30110;BME280;14965;50.660;13.226;2023-09-19T08:04:24;94589.69;;;16.88;88.49
30110;BME280;14965;50.660;13.226;2023-09-19T08:06:50;94591.69;;;17.02;88.51
30110;BME280;14965;50.660;13.226;2023-09-19T08:09:16;94596.56;;;17.28;87.63
30110;BME280;14965;50.660;13.226;2023-09-19T08:11:42;94587.88;;;17.46;86.12
30110;BME280;14965;50.660;13.226;2023-09-19T08:14:08;94584.63;;;17.74;83.05
30110;BME280;14965;50.660;13.226;2023-09-19T08:16:34;94588.72;;;17.99;81.58
30110;BME280;14965;50.660;13.226;2023-09-19T08:19:01;94580.03;;;17.97;79.60
30110;BME280;14965;50.660;13.226;2023-09-19T08:21:27;94601.63;;;17.96;77.89
30110;BME280;14965;50.660;13.226;2023-09-19T08:23:53;94589.06;;;18.12;77.76
30110;BME280;14965;50.660;13.226;2023-09-19T08:26:19;94591.81;;;18.38;77.01
30110;BME280;14965;50.660;13.226;2023-09-19T08:28:45;94591.47;;;18.25;74.00
30110;BME280;14965;50.660;13.226;2023-09-19T08:31:11;94609.41;;;18.12;74.28
30110;BME280;14965;50.660;13.226;2023-09-19T08:33:38;94597.25;;;18.15;74.04
30110;BME280;14965;50.660;13.226;2023-09-19T08:36:06;94603.59;;;18.16;72.54
30110;BME280;14965;50.660;13.226;2023-09-19T08:38:34;94612.81;;;17.96;74.59
30110;BME280;14965;50.660;13.226;2023-09-19T08:41:05;94614.03;;;17.89;74.81
30110;BME280;14965;50.660;13.226;2023-09-19T08:43:31;94605.13;;;17.91;74.25
30110;BME280;14965;50.660;13.226;2023-09-19T08:46:09;94605.84;;;17.86;74.17
30110;BME280;14965;50.660;13.226;2023-09-19T08:48:42;94600.53;;;17.67;74.61
30110;BME280;14965;50.660;13.226;2023-09-19T08:51:24;94606.84;;;17.62;75.43
30110;BME280;14965;50.660;13.226;2023-09-19T08:54:03;94609.13;;;17.84;75.73
30110;BME280;14965;50.660;13.226;2023-09-19T08:56:33;94606.53;;;18.33;74.90
30110;BME280;14965;50.660;13.226;2023-09-19T08:59:03;94606.88;;;18.78;68.80
30110;BME280;14965;50.660;13.226;2023-09-19T09:01:31;94612.34;;;18.98;67.91
30110;BME280;14965;50.660;13.226;2023-09-19T09:03:58;94602.91;;;18.90;66.96
30110;BME280;14965;50.660;13.226;2023-09-19T09:06:26;94610.16;;;18.76;67.24
30110;BME280;14965;50.660;13.226;2023-09-19T09:08:52;94626.94;;;18.76;69.42
30110;BME280;14965;50.660;13.226;2023-09-19T09:11:19;94623.72;;;18.89;68.37
30110;BME280;14965;50.660;13.226;2023-09-19T09:13:45;94624.31;;;18.99;67.86
30110;BME280;14965;50.660;13.226;2023-09-19T09:16:13;94628.63;;;18.94;66.54
30110;BME280;14965;50.660;13.226;2023-09-19T09:18:39;94624.13;;;18.71;66.98
30110;BME280;14965;50.660;13.226;2023-09-19T09:21:05;94630.31;;;18.49;67.68
30110;BME280;14965;50.660;13.226;2023-09-19T09:23:33;94622.63;;;18.44;68.00
30110;BME280;14965;50.660;13.226;2023-09-19T09:25:59;94629.69;;;18.39;68.37
30110;BME280;14965;50.660;13.226;2023-09-19T09:28:27;94628.38;;;18.34;68.78
30110;BME280;14965;50.660;13.226;2023-09-19T09:30:54;94633.75;;;18.38;68.96
30110;BME280;14965;50.660;13.226;2023-09-19T09:33:21;94643.47;;;18.74;67.26
30110;BME280;14965;50.660;13.226;2023-09-19T09:35:49;94637.91;;;19.17;65.52
30110;BME280;14965;50.660;13.226;2023-09-19T09:38:16;94638.09;;;19.08;63.19
30110;BME280;14965;50.660;13.226;2023-09-19T09:40:51;94635.56;;;18.73;63.05
30110;BME280;14965;50.660;13.226;2023-09-19T09:43:30;94647.84;;;18.49;63.85
30110;BME280;14965;50.660;13.226;2023-09-19T09:46:14;94638.41;;;18.47;65.55
30110;BME280;14965;50.660;13.226;2023-09-19T09:48:41;94640.19;;;18.44;63.96
30110;BME280;14965;50.660;13.226;2023-09-19T09:51:07;94644.34;;;18.60;63.84
30110;BME280;14965;50.660;13.226;2023-09-19T09:53:33;94637.44;;;18.81;63.97
30110;BME280;14965;50.660;13.226;2023-09-19T09:56:02;94639.22;;;18.84;62.48
30110;BME280;14965;50.660;13.226;2023-09-19T09:58:29;94636.03;;;18.65;64.27
30110;BME280;14965;50.660;13.226;2023-09-19T10:00:55;94649.34;;;18.76;61.99
30110;BME280;14965;50.660;13.226;2023-09-19T10:03:21;94643.88;;;18.61;62.06
30110;BME280;14965;50.660;13.226;2023-09-19T10:05:53;94658.59;;;18.56;64.69
30110;BME280;14965;50.660;13.226;2023-09-19T10:08:19;94667.94;;;18.48;62.66
30110;BME280;14965;50.660;13.226;2023-09-19T10:10:45;94670.41;;;18.40;63.18
30110;BME280;14965;50.660;13.226;2023-09-19T10:13:14;94679.88;;;18.48;63.75
30110;BME280;14965;50.660;13.226;2023-09-19T10:15:42;94665.34;;;18.44;63.95
30110;BME280;14965;50.660;13.226;2023-09-19T10:18:12;94666.72;;;18.28;63.03
30110;BME280;14965;50.660;13.226;2023-09-19T10:20:39;94670.94;;;18.18;65.01
30110;BME280;14965;50.660;13.226;2023-09-19T10:23:07;94667.22;;;18.27;64.42
30110;BME280;14965;50.660;13.226;2023-09-19T10:25:36;94662.31;;;18.74;65.04
30110;BME280;14965;50.660;13.226;2023-09-19T10:28:05;94651.34;;;19.07;62.50
30110;BME280;14965;50.660;13.226;2023-09-19T10:30:37;94660.13;;;19.32;62.89
30110;BME280;14965;50.660;13.226;2023-09-19T10:33:04;94646.22;;;19.54;59.81
30110;BME280;14965;50.660;13.226;2023-09-19T10:35:33;94640.31;;;19.41;59.08
30110;BME280;14965;50.660;13.226;2023-09-19T10:38:01;94653.47;;;19.24;63.24
30110;BME280;14965;50.660;13.226;2023-09-19T10:40:28;94654.47;;;19.21;60.32
30110;BME280;14965;50.660;13.226;2023-09-19T10:42:57;94657.88;;;19.41;60.34
30110;BME280;14965;50.660;13.226;2023-09-19T10:45:26;94655.09;;;19.47;59.29
30110;BME280;14965;50.660;13.226;2023-09-19T10:47:55;94665.31;;;19.56;59.28
30110;BME280;14965;50.660;13.226;2023-09-19T10:50:22;94663.69;;;19.32;56.53
30110;BME280;14965;50.660;13.226;2023-09-19T10:52:48;94660.28;;;19.17;56.79
30110;BME280;14965;50.660;13.226;2023-09-19T10:55:18;94662.75;;;19.04;58.61
30110;BME280;14965;50.660;13.226;2023-09-19T10:57:46;94663.59;;;19.15;60.15
30110;BME280;14965;50.660;13.226;2023-09-19T11:00:13;94660.44;;;19.45;58.47
30110;BME280;14965;50.660;13.226;2023-09-19T11:02:41;94658.03;;;19.75;57.37
30110;BME280;14965;50.660;13.226;2023-09-19T11:05:13;94662.97;;;20.03;55.76
30110;BME280;14965;50.660;13.226;2023-09-19T11:07:57;94651.53;;;20.18;57.59
30110;BME280;14965;50.660;13.226;2023-09-19T11:10:44;94656.09;;;20.09;57.11
30110;BME280;14965;50.660;13.226;2023-09-19T11:13:24;94658.91;;;20.09;56.29
30110;BME280;14965;50.660;13.226;2023-09-19T11:16:05;94652.03;;;20.16;56.66
30110;BME280;14965;50.660;13.226;2023-09-19T11:18:55;94661.72;;;20.15;54.12
30110;BME280;14965;50.660;13.226;2023-09-19T11:21:56;94665.78;;;20.08;53.92
30110;BME280;14965;50.660;13.226;2023-09-19T11:24:29;94651.44;;;19.89;54.83
30110;BME280;14965;50.660;13.226;2023-09-19T11:27:11;94651.28;;;19.50;54.91
30110;BME280;14965;50.660;13.226;2023-09-19T11:29:37;94645.16;;;19.46;56.59
30110;BME280;14965;50.660;13.226;2023-09-19T11:32:03;94656.59;;;19.37;55.18
30110;BME280;14965;50.660;13.226;2023-09-19T11:34:46;94652.94;;;19.20;57.18
30110;BME280;14965;50.660;13.226;2023-09-19T11:38:05;94653.06;;;18.99;54.62
30110;BME280;14965;50.660;13.226;2023-09-19T11:40:31;94643.59;;;18.91;56.88
30110;BME280;14965;50.660;13.226;2023-09-19T11:42:57;94657.59;;;18.91;56.84
30110;BME280;14965;50.660;13.226;2023-09-19T11:46:01;94650.53;;;19.01;56.95
30110;BME280;14965;50.660;13.226;2023-09-19T11:48:28;94667.91;;;19.11;56.91
30110;BME280;14965;50.660;13.226;2023-09-19T11:50:56;94659.00;;;19.12;56.33
30110;BME280;14965;50.660;13.226;2023-09-19T11:53:31;94657.50;;;19.23;57.37
30110;BME280;14965;50.660;13.226;2023-09-19T11:55:59;94661.44;;;19.36;58.37
30110;BME280;14965;50.660;13.226;2023-09-19T11:58:25;94656.13;;;19.44;56.76
30110;BME280;14965;50.660;13.226;2023-09-19T12:00:54;94661.38;;;19.31;56.74
30110;BME280;14965;50.660;13.226;2023-09-19T12:03:22;94661.00;;;19.06;55.21
30110;BME280;14965;50.660;13.226;2023-09-19T12:05:49;94658.34;;;18.91;56.69
30110;BME280;14965;50.660;13.226;2023-09-19T12:08:15;94661.94;;;18.98;57.70
30110;BME280;14965;50.660;13.226;2023-09-19T12:10:48;94657.47;;;19.11;56.42
30110;BME280;14965;50.660;13.226;2023-09-19T12:13:16;94656.72;;;19.16;55.25
30110;BME280;14965;50.660;13.226;2023-09-19T12:15:43;94669.19;;;19.15;55.50
30110;BME280;14965;50.660;13.226;2023-09-19T12:18:09;94667.41;;;19.18;56.30
30110;BME280;14965;50.660;13.226;2023-09-19T12:20:44;94669.00;;;19.25;56.75
30110;BME280;14965;50.660;13.226;2023-09-19T12:23:13;94666.44;;;19.27;56.94
30110;BME280;14965;50.660;13.226;2023-09-19T12:25:41;94672.31;;;19.23;56.54
30110;BME280;14965;50.660;13.226;2023-09-19T12:28:09;94664.13;;;19.20;57.57
30110;BME280;14965;50.660;13.226;2023-09-19T12:30:34;94666.19;;;19.25;55.81
30110;BME280;14965;50.660;13.226;2023-09-19T12:33:02;94671.19;;;19.09;54.70
30110;BME280;14965;50.660;13.226;2023-09-19T12:35:29;94671.91;;;19.04;55.08
30110;BME280;14965;50.660;13.226;2023-09-19T12:37:55;94660.84;;;18.84;54.67
30110;BME280;14965;50.660;13.226;2023-09-19T12:40:22;94653.91;;;18.74;56.95
30110;BME280;14965;50.660;13.226;2023-09-19T12:42:50;94657.88;;;18.67;56.58
30110;BME280;14965;50.660;13.226;2023-09-19T12:45:17;94666.34;;;18.73;55.58
30110;BME280;14965;50.660;13.226;2023-09-19T12:48:20;94656.22;;;18.81;53.84
30110;BME280;14965;50.660;13.226;2023-09-19T12:51:06;94662.03;;;18.72;52.39
30110;BME280;14965;50.660;13.226;2023-09-19T12:53:33;94655.16;;;18.73;53.95